createdAt,value
2023-04-29T00:01:06.820Z,72.80
2023-04-29T00:03:33.630Z,74.88
2023-04-29T00:06:01.228Z,73.82
2023-04-29T00:08:28.318Z,70.63
2023-04-29T00:10:55.478Z,73.70
2023-04-29T00:13:23.147Z,68.85
2023-04-29T00:15:50.520Z,63.97
2023-04-29T00:18:17.159Z,66.32
2023-04-29T00:20:43.870Z,70.43
2023-04-29T00:23:11.776Z,68.32
2023-04-29T00:25:38.889Z,62.22
2023-04-29T00:28:08.478Z,52.35
2023-04-29T00:30:35.409Z,54.47
2023-04-29T00:33:02.534Z,51.53
2023-04-29T00:35:30.625Z,49.00
2023-04-29T00:37:57.428Z,51.70
2023-04-29T00:40:24.165Z,47.65
2023-04-29T00:42:50.897Z,44.22
2023-04-29T00:45:17.410Z,41.83
2023-04-29T00:47:44.008Z,42.38
2023-04-29T00:50:10.899Z,42.90
2023-04-29T00:52:38.758Z,38.75
2023-04-29T00:55:08.834Z,41.88
2023-04-29T00:57:36.476Z,41.17
2023-04-29T01:00:04.056Z,47.40
2023-04-29T01:02:30.784Z,43.55
2023-04-29T01:04:57.626Z,45.00
2023-04-29T01:07:34.475Z,41.55
2023-04-29T01:10:15.819Z,50.38
2023-04-29T01:12:54.719Z,42.58
2023-04-29T01:15:26.198Z,44.10
2023-04-29T01:18:05.141Z,46.05
2023-04-29T01:20:33.649Z,45.70
2023-04-29T01:23:01.527Z,46.10
2023-04-29T01:25:28.714Z,39.80
2023-04-29T01:28:34.877Z,45.25
2023-04-29T01:31:11.532Z,42.63
2023-04-29T01:33:50.182Z,46.25
2023-04-29T01:36:51.388Z,47.33
2023-04-29T01:39:33.389Z,48.38
2023-04-29T01:42:14.460Z,49.08
2023-04-29T01:44:42.538Z,46.28
2023-04-29T01:47:13.969Z,55.15
2023-04-29T01:49:46.811Z,47.15
2023-04-29T01:52:14.416Z,51.30
2023-04-29T01:54:46.113Z,34.80
2023-04-29T01:57:12.930Z,41.70
2023-04-29T01:59:53.735Z,44.50
2023-04-29T02:02:41.529Z,44.90
2023-04-29T02:05:17.270Z,43.42
2023-04-29T02:07:52.200Z,41.40
2023-04-29T02:10:18.825Z,42.40
2023-04-29T02:12:47.900Z,46.63
2023-04-29T02:15:15.903Z,38.88
2023-04-29T02:17:43.554Z,38.90
2023-04-29T02:20:10.830Z,44.20
2023-04-29T02:22:37.440Z,41.58
2023-04-29T02:25:04.237Z,39.83
2023-04-29T02:27:31.595Z,41.40
2023-04-29T02:29:58.910Z,44.20
2023-04-29T02:32:25.921Z,46.20
2023-04-29T02:34:53.656Z,42.55
2023-04-29T02:37:21.524Z,39.58
2023-04-29T02:39:48.175Z,44.97
2023-04-29T02:42:14.773Z,40.35
2023-04-29T02:44:42.541Z,45.40
2023-04-29T02:47:09.196Z,36.95
2023-04-29T02:49:36.265Z,41.15
2023-04-29T02:52:02.881Z,36.60
2023-04-29T02:54:29.606Z,35.30
2023-04-29T02:56:56.264Z,41.92
2023-04-29T02:59:23.018Z,41.50
2023-04-29T03:01:50.209Z,37.08
2023-04-29T03:04:16.989Z,35.08
2023-04-29T03:06:44.349Z,39.35
2023-04-29T03:09:13.218Z,38.50
2023-04-29T03:11:40.233Z,39.13
2023-04-29T03:14:06.977Z,41.75
2023-04-29T03:16:34.763Z,38.28
2023-04-29T03:19:01.491Z,42.50
2023-04-29T03:21:29.801Z,36.35
2023-04-29T03:23:57.392Z,37.20
2023-04-29T03:26:29.932Z,40.65
2023-04-29T03:28:58.433Z,36.72
2023-04-29T03:31:27.313Z,35.50
2023-04-29T03:33:54.046Z,36.00
2023-04-29T03:36:21.541Z,40.63
2023-04-29T03:38:58.129Z,36.45
2023-04-29T03:41:25.148Z,36.10
2023-04-29T03:43:52.604Z,32.55
2023-04-29T03:46:19.374Z,34.08
2023-04-29T03:48:46.250Z,34.13
2023-04-29T03:51:13.654Z,30.77
2023-04-29T03:53:41.107Z,38.08
2023-04-29T03:56:09.274Z,36.65
2023-04-29T03:58:37.786Z,34.13
2023-04-29T04:01:04.616Z,33.97
2023-04-29T04:03:38.898Z,31.48
2023-04-29T04:06:05.726Z,36.50
2023-04-29T04:08:32.416Z,42.40
2023-04-29T04:11:15.022Z,38.05
2023-04-29T04:13:45.065Z,40.00
2023-04-29T04:16:13.344Z,34.22
2023-04-29T04:18:40.374Z,37.95
2023-04-29T04:21:11.872Z,33.53
2023-04-29T04:23:41.353Z,30.45
2023-04-29T04:26:10.279Z,39.58
2023-04-29T04:28:55.774Z,34.65
2023-04-29T04:31:48.647Z,44.83
2023-04-29T04:34:17.177Z,38.92
2023-04-29T04:36:46.900Z,37.45
2023-04-29T04:39:13.607Z,34.95
2023-04-29T04:41:40.592Z,34.85
2023-04-29T04:44:07.856Z,39.15
2023-04-29T04:46:42.485Z,35.63
2023-04-29T04:49:14.456Z,43.72
2023-04-29T04:51:48.755Z,31.40
2023-04-29T04:54:15.629Z,39.67
2023-04-29T04:56:42.413Z,38.50
2023-04-29T04:59:09.492Z,33.50
2023-04-29T05:01:38.502Z,34.40
2023-04-29T05:04:05.481Z,37.85
2023-04-29T05:06:32.154Z,33.67
2023-04-29T05:09:00.540Z,32.65
2023-04-29T05:11:27.161Z,35.53
2023-04-29T05:14:08.056Z,33.40
2023-04-29T05:16:35.863Z,31.25
2023-04-29T05:19:02.560Z,35.08
2023-04-29T05:21:32.876Z,29.55
2023-04-29T05:24:00.660Z,32.10
2023-04-29T05:26:27.164Z,27.45
2023-04-29T05:28:58.301Z,29.73
2023-04-29T05:31:26.102Z,31.15
2023-04-29T05:33:52.847Z,31.20
2023-04-29T05:36:19.568Z,26.73
2023-04-29T05:38:47.229Z,31.75
2023-04-29T05:41:14.271Z,35.20
2023-04-29T05:44:11.263Z,28.00
2023-04-29T05:46:38.076Z,27.05
2023-04-29T05:49:04.850Z,28.05
2023-04-29T05:51:32.108Z,24.02
2023-04-29T05:54:00.305Z,22.00
2023-04-29T05:56:28.522Z,24.23
2023-04-29T05:58:56.197Z,24.10
2023-04-29T06:01:23.052Z,24.40
2023-04-29T06:03:49.796Z,23.30
2023-04-29T06:06:39.108Z,22.33
2023-04-29T06:09:27.631Z,28.55
2023-04-29T06:11:56.851Z,24.38
2023-04-29T06:14:23.606Z,23.00
2023-04-29T06:16:50.716Z,23.85
2023-04-29T06:19:17.456Z,21.92
2023-04-29T06:21:44.066Z,18.63
2023-04-29T06:24:10.671Z,21.45
2023-04-29T06:26:37.406Z,22.70
2023-04-29T06:29:03.964Z,23.02
2023-04-29T06:31:30.687Z,19.92
2023-04-29T06:34:02.045Z,19.80
2023-04-29T06:36:29.000Z,18.90
2023-04-29T06:39:07.458Z,18.92
2023-04-29T06:41:48.053Z,18.67
2023-04-29T06:44:52.675Z,22.08
2023-04-29T06:47:37.581Z,19.80
2023-04-29T06:50:11.410Z,21.60
2023-04-29T06:52:37.951Z,19.73
2023-04-29T06:55:04.934Z,21.33
2023-04-29T06:57:32.121Z,19.38
2023-04-29T06:59:58.764Z,20.77
2023-04-29T07:02:25.452Z,21.85
2023-04-29T07:04:52.626Z,19.30
2023-04-29T07:07:19.396Z,20.90
2023-04-29T07:09:46.074Z,21.67
2023-04-29T07:12:12.646Z,20.35
2023-04-29T07:14:39.187Z,19.35
2023-04-29T07:17:05.962Z,18.33
2023-04-29T07:19:32.687Z,21.65
2023-04-29T07:21:59.295Z,21.05
2023-04-29T07:24:26.538Z,23.17
2023-04-29T07:26:53.275Z,21.65
2023-04-29T07:29:19.867Z,16.63
2023-04-29T07:31:46.568Z,22.38
2023-04-29T07:34:13.656Z,20.27
2023-04-29T07:36:40.351Z,19.17
2023-04-29T07:39:06.974Z,18.65
2023-04-29T07:41:33.750Z,19.17
2023-04-29T07:44:00.422Z,20.55
2023-04-29T07:46:27.304Z,23.50
2023-04-29T07:48:53.915Z,21.40
2023-04-29T07:51:21.767Z,22.65
2023-04-29T07:53:48.270Z,20.05
2023-04-29T07:56:14.842Z,21.55
2023-04-29T07:58:41.569Z,21.40
2023-04-29T08:01:10.099Z,17.58
2023-04-29T08:03:39.895Z,16.60
2023-04-29T08:06:08.036Z,19.67
2023-04-29T08:08:34.963Z,21.25
2023-04-29T08:11:01.689Z,19.80
2023-04-29T08:13:28.780Z,16.38
2023-04-29T08:15:55.452Z,15.77
2023-04-29T08:18:22.100Z,20.20
2023-04-29T08:20:49.535Z,19.50
2023-04-29T08:23:16.385Z,16.33
2023-04-29T08:25:43.980Z,17.80
2023-04-29T08:28:11.111Z,20.60
2023-04-29T08:30:39.628Z,17.77
2023-04-29T08:33:06.725Z,17.38
2023-04-29T08:35:33.321Z,15.82
2023-04-29T08:38:00.622Z,17.05
2023-04-29T08:40:27.248Z,16.13
2023-04-29T08:42:54.683Z,17.83
2023-04-29T08:45:25.120Z,19.33
2023-04-29T08:47:52.743Z,19.35
2023-04-29T08:50:19.504Z,22.50
2023-04-29T08:52:46.118Z,15.55
2023-04-29T08:55:12.625Z,20.65
2023-04-29T08:57:40.907Z,17.45
2023-04-29T09:00:10.242Z,15.32
2023-04-29T09:02:57.179Z,17.83
2023-04-29T09:05:24.427Z,19.27
2023-04-29T09:07:52.502Z,17.00
2023-04-29T09:10:19.124Z,13.27
2023-04-29T09:12:46.745Z,22.60
2023-04-29T09:15:13.366Z,17.40
2023-04-29T09:17:47.151Z,15.13
2023-04-29T09:20:27.151Z,13.20
2023-04-29T09:23:11.839Z,17.02
2023-04-29T09:25:38.479Z,15.63
2023-04-29T09:28:17.428Z,14.77
2023-04-29T09:30:47.293Z,18.27
2023-04-29T09:33:15.250Z,13.05
2023-04-29T09:35:41.928Z,16.08
2023-04-29T09:38:13.744Z,13.55
2023-04-29T09:40:57.408Z,14.13
2023-04-29T09:43:26.211Z,18.05
2023-04-29T09:45:53.004Z,13.82
2023-04-29T09:48:19.618Z,13.32
2023-04-29T09:51:01.670Z,15.18
2023-04-29T09:53:31.595Z,11.77
2023-04-29T09:56:02.674Z,13.55
2023-04-29T09:58:40.306Z,11.73
2023-04-29T10:01:07.574Z,12.40
2023-04-29T10:03:36.518Z,10.98
2023-04-29T10:06:05.595Z,12.55
2023-04-29T10:08:33.877Z,10.07
2023-04-29T10:11:02.331Z,12.07
2023-04-29T10:13:30.505Z,11.63
2023-04-29T10:16:03.359Z,13.00
2023-04-29T10:18:37.281Z,9.30
2023-04-29T10:21:07.995Z,10.30
2023-04-29T10:23:34.594Z,8.50
2023-04-29T10:26:03.587Z,10.95
2023-04-29T10:28:33.462Z,11.50
2023-04-29T10:31:03.497Z,9.45
2023-04-29T10:33:33.801Z,8.77
2023-04-29T10:36:01.548Z,10.45
2023-04-29T10:38:52.777Z,8.60
2023-04-29T10:41:30.116Z,10.50
2023-04-29T10:44:00.024Z,9.85
2023-04-29T10:46:27.328Z,8.18
2023-04-29T10:49:12.143Z,11.43
2023-04-29T10:51:44.000Z,8.98
2023-04-29T10:54:14.810Z,10.65
2023-04-29T10:56:53.990Z,6.72
2023-04-29T10:59:23.128Z,10.30
2023-04-29T11:01:53.476Z,9.45
2023-04-29T11:04:23.478Z,9.55
2023-04-29T11:06:55.364Z,8.43
2023-04-29T11:09:27.202Z,8.98
2023-04-29T11:12:09.452Z,6.60
2023-04-29T11:14:40.422Z,7.47
2023-04-29T11:17:13.947Z,9.05
2023-04-29T11:19:51.310Z,10.95
2023-04-29T11:22:17.971Z,8.60
2023-04-29T11:24:55.127Z,11.15
2023-04-29T11:27:25.689Z,7.45
2023-04-29T11:29:58.738Z,10.13
2023-04-29T11:32:34.043Z,9.15
2023-04-29T11:35:12.307Z,9.25
2023-04-29T11:37:40.003Z,7.80
2023-04-29T11:40:07.805Z,7.13
2023-04-29T11:42:54.636Z,8.57
2023-04-29T11:45:21.329Z,7.82
2023-04-29T11:47:49.018Z,6.00
2023-04-29T11:50:19.155Z,7.75
2023-04-29T11:52:49.631Z,8.43
2023-04-29T11:55:16.353Z,8.48
2023-04-29T11:57:43.671Z,6.65
2023-04-29T12:00:12.807Z,7.10
2023-04-29T12:02:43.610Z,6.43
2023-04-29T12:05:12.704Z,7.90
2023-04-29T12:07:40.094Z,6.78
2023-04-29T12:10:11.289Z,7.20
2023-04-29T12:12:40.733Z,5.40
2023-04-29T12:15:10.015Z,7.72
2023-04-29T12:17:37.239Z,5.95
2023-04-29T12:20:04.240Z,10.23
2023-04-29T12:22:33.979Z,7.43
2023-04-29T12:25:03.592Z,6.22
2023-04-29T12:27:30.233Z,5.00
2023-04-29T12:29:57.764Z,4.90
2023-04-29T12:32:25.665Z,6.30
2023-04-29T12:34:53.198Z,4.68
2023-04-29T12:37:23.251Z,4.88
2023-04-29T12:39:50.797Z,5.95
2023-04-29T12:42:17.932Z,7.78
2023-04-29T12:44:48.474Z,5.07
2023-04-29T12:47:16.847Z,5.28
2023-04-29T12:49:45.882Z,5.85
2023-04-29T12:52:12.982Z,5.18
2023-04-29T12:54:43.689Z,5.97
2023-04-29T12:57:12.149Z,8.68
2023-04-29T12:59:39.745Z,4.43
2023-04-29T13:02:06.462Z,6.40
2023-04-29T13:04:33.296Z,5.07
2023-04-29T13:07:00.686Z,5.53
2023-04-29T13:09:27.408Z,4.75
2023-04-29T13:11:54.252Z,4.47
2023-04-29T13:14:21.157Z,8.13
2023-04-29T13:16:47.769Z,3.47
2023-04-29T13:19:32.163Z,4.43
2023-04-29T13:22:01.588Z,5.07
2023-04-29T13:24:28.166Z,4.93
2023-04-29T13:26:54.876Z,3.50
2023-04-29T13:29:21.391Z,4.43
2023-04-29T13:31:48.171Z,6.38
2023-04-29T13:34:14.855Z,3.65
2023-04-29T13:36:41.429Z,3.80
2023-04-29T13:39:08.481Z,3.58
2023-04-29T13:41:35.583Z,5.28
2023-04-29T13:44:02.772Z,5.03
2023-04-29T13:46:31.533Z,4.00
2023-04-29T13:49:20.903Z,3.22
2023-04-29T13:52:26.264Z,4.68
2023-04-29T13:57:55.372Z,6.30
2023-04-29T13:59:53.136Z,5.95
2023-04-29T14:04:49.895Z,5.93
2023-04-29T14:07:16.803Z,4.43
2023-04-29T14:09:43.345Z,8.73
2023-04-29T14:12:10.371Z,4.28
2023-04-29T14:14:36.947Z,4.00
2023-04-29T14:17:03.723Z,6.25
2023-04-29T14:19:30.253Z,4.75
2023-04-29T14:21:56.778Z,3.92
2023-04-29T14:24:23.310Z,3.63
2023-04-29T14:26:49.935Z,3.90
2023-04-29T14:29:16.483Z,5.63
2023-04-29T14:31:43.197Z,3.88
2023-04-29T14:34:09.755Z,2.92
2023-04-29T14:36:36.235Z,4.07
2023-04-29T14:39:04.227Z,5.60
2023-04-29T14:41:30.865Z,3.92
2023-04-29T14:43:57.377Z,6.13
2023-04-29T14:46:25.193Z,3.63
2023-04-29T14:48:51.893Z,4.10
2023-04-29T14:51:18.494Z,4.05
2023-04-29T14:53:45.109Z,4.75
2023-04-29T14:56:11.663Z,6.22
2023-04-29T14:58:38.254Z,4.38
2023-04-29T15:01:04.808Z,6.72
2023-04-29T15:03:31.824Z,3.20
2023-04-29T15:05:58.827Z,4.03
2023-04-29T15:08:25.445Z,6.57
2023-04-29T15:10:51.978Z,8.13
2023-04-29T15:13:18.674Z,4.68
2023-04-29T15:15:45.328Z,6.63
2023-04-29T15:18:11.850Z,5.47
2023-04-29T15:20:38.503Z,4.90
2023-04-29T15:23:05.917Z,6.32
2023-04-29T15:25:34.621Z,6.72
2023-04-29T15:28:03.857Z,6.40
2023-04-29T15:30:30.643Z,8.13
2023-04-29T15:32:57.797Z,5.20
2023-04-29T15:35:24.379Z,6.90
2023-04-29T15:37:51.042Z,8.63
2023-04-29T15:40:17.829Z,6.47
2023-04-29T15:42:44.602Z,9.20
2023-04-29T15:45:11.590Z,5.22
2023-04-29T15:47:38.697Z,7.15
2023-04-29T15:50:06.042Z,7.90
2023-04-29T15:52:32.564Z,10.35
2023-04-29T15:54:59.328Z,8.07
2023-04-29T15:57:26.135Z,8.32
2023-04-29T15:59:53.306Z,5.82
2023-04-29T16:02:20.964Z,6.38
2023-04-29T16:04:47.798Z,8.00
2023-04-29T16:07:14.554Z,6.15
2023-04-29T16:09:41.279Z,8.15
2023-04-29T16:12:08.468Z,6.18
2023-04-29T16:14:35.078Z,3.65
2023-04-29T16:17:02.028Z,6.70
2023-04-29T16:19:28.752Z,4.93
2023-04-29T16:21:55.455Z,7.00
2023-04-29T16:24:22.141Z,5.05
2023-04-29T16:26:50.410Z,6.72
2023-04-29T16:29:18.209Z,5.38
2023-04-29T16:31:45.943Z,6.68
2023-04-29T16:34:12.656Z,11.18
2023-04-29T16:36:39.342Z,5.88
2023-04-29T16:39:06.205Z,7.78
2023-04-29T16:41:33.205Z,6.32
2023-04-29T16:43:59.848Z,5.13
2023-04-29T16:46:26.580Z,6.00
2023-04-29T16:48:56.830Z,4.38
2023-04-29T16:51:27.435Z,4.75
2023-04-29T16:53:54.836Z,3.97
2023-04-29T16:56:24.340Z,3.33
2023-04-29T16:58:51.113Z,4.85
2023-04-29T17:01:19.745Z,4.35
2023-04-29T17:03:47.770Z,4.72
2023-04-29T17:06:15.878Z,5.25
2023-04-29T17:08:43.082Z,4.35
2023-04-29T17:11:10.294Z,8.15
2023-04-29T17:13:36.981Z,5.40
2023-04-29T17:16:03.895Z,4.30
2023-04-29T17:18:30.637Z,4.82
2023-04-29T17:20:57.221Z,4.68
2023-04-29T17:23:23.883Z,6.80
2023-04-29T17:25:50.517Z,8.35
2023-04-29T17:28:17.261Z,9.30
2023-04-29T17:30:45.020Z,8.23
2023-04-29T17:33:13.383Z,6.50
2023-04-29T17:35:41.014Z,4.28
2023-04-29T17:38:08.100Z,5.05
2023-04-29T17:40:34.715Z,8.13
2023-04-29T17:43:01.583Z,5.18
2023-04-29T17:45:28.301Z,3.22
2023-04-29T17:47:55.411Z,3.63
2023-04-29T17:50:21.981Z,3.33
2023-04-29T17:52:48.566Z,5.25
2023-04-29T17:55:15.188Z,4.57
2023-04-29T17:57:41.912Z,4.15
2023-04-29T18:00:10.749Z,6.35
2023-04-29T18:02:37.566Z,3.42
2023-04-29T18:05:04.473Z,6.07
2023-04-29T18:07:31.091Z,3.28
2023-04-29T18:09:58.560Z,4.82
2023-04-29T18:12:25.531Z,5.25
2023-04-29T18:14:52.293Z,5.10
2023-04-29T18:17:19.749Z,6.88
2023-04-29T18:19:48.614Z,10.68
2023-04-29T18:22:15.865Z,10.77
2023-04-29T18:24:42.790Z,8.10
2023-04-29T18:27:09.410Z,7.10
2023-04-29T18:29:36.090Z,5.32
2023-04-29T18:32:03.857Z,7.35
2023-04-29T18:34:31.361Z,4.15
2023-04-29T18:36:57.909Z,6.28
2023-04-29T18:39:24.635Z,3.97
2023-04-29T18:41:52.116Z,6.35
2023-04-29T18:44:18.692Z,7.72
2023-04-29T18:46:45.352Z,6.65
2023-04-29T18:49:16.105Z,4.57
2023-04-29T18:51:46.767Z,7.45
2023-04-29T18:54:15.400Z,4.50
2023-04-29T18:56:44.200Z,3.55
2023-04-29T18:59:12.754Z,5.90
2023-04-29T19:01:39.455Z,3.97
2023-04-29T19:04:08.578Z,3.03
2023-04-29T19:06:36.612Z,2.63
2023-04-29T19:09:03.758Z,4.43
2023-04-29T19:11:30.264Z,3.08
2023-04-29T19:13:57.603Z,3.90
2023-04-29T19:16:24.762Z,3.95
2023-04-29T19:18:51.350Z,4.35
2023-04-29T19:21:18.437Z,4.07
2023-04-29T19:23:45.297Z,4.18
2023-04-29T19:26:11.943Z,8.00
2023-04-29T19:28:38.660Z,5.05
2023-04-29T19:31:05.399Z,4.68
2023-04-29T19:33:32.076Z,3.33
2023-04-29T19:35:58.616Z,3.70
2023-04-29T19:38:25.712Z,6.47
2023-04-29T19:40:55.545Z,4.03
2023-04-29T19:43:22.860Z,3.45
2023-04-29T19:45:49.655Z,5.72
2023-04-29T19:48:16.406Z,13.80
2023-04-29T19:50:43.332Z,5.50
2023-04-29T19:53:11.467Z,3.97
2023-04-29T19:55:39.858Z,6.53
2023-04-29T19:58:07.121Z,5.43
2023-04-29T20:00:34.193Z,7.43
2023-04-29T20:03:01.128Z,8.35
2023-04-29T20:05:28.805Z,3.80
2023-04-29T20:07:56.074Z,5.10
2023-04-29T20:10:23.018Z,6.38
2023-04-29T20:12:49.794Z,4.97
2023-04-29T20:15:16.638Z,6.72
2023-04-29T20:17:43.463Z,5.88
2023-04-29T20:20:10.523Z,4.93
2023-04-29T20:22:38.435Z,5.50
2023-04-29T20:25:05.750Z,5.22
2023-04-29T20:27:32.348Z,3.72
2023-04-29T20:29:58.985Z,5.10
2023-04-29T20:32:26.070Z,5.10
2023-04-29T20:34:53.748Z,6.00
2023-04-29T20:37:20.411Z,6.28
2023-04-29T20:39:47.364Z,6.88
2023-04-29T20:42:13.938Z,8.43
2023-04-29T20:44:40.966Z,5.75
2023-04-29T20:47:07.727Z,8.65
2023-04-29T20:49:34.405Z,5.05
2023-04-29T20:52:01.310Z,9.15
2023-04-29T20:54:28.017Z,6.80
2023-04-29T20:56:54.538Z,5.93
2023-04-29T20:59:21.086Z,8.48
2023-04-29T21:01:47.635Z,8.40
2023-04-29T21:04:14.569Z,5.88
2023-04-29T21:06:41.448Z,7.00
2023-04-29T21:09:08.958Z,9.25
2023-04-29T21:11:35.608Z,11.48
2023-04-29T21:14:02.131Z,6.88
2023-04-29T21:16:29.842Z,7.50
2023-04-29T21:18:56.430Z,8.70
2023-04-29T21:21:23.226Z,10.20
2023-04-29T21:23:52.979Z,7.88
2023-04-29T21:26:19.530Z,10.30
2023-04-29T21:28:46.309Z,9.95
2023-04-29T21:31:16.334Z,10.65
2023-04-29T21:33:44.303Z,9.60
2023-04-29T21:36:11.022Z,10.70
2023-04-29T21:38:38.651Z,11.98
2023-04-29T21:41:06.217Z,13.32
2023-04-29T21:43:33.357Z,11.45
2023-04-29T21:46:00.470Z,12.13
2023-04-29T21:48:27.467Z,12.68
2023-04-29T21:50:54.133Z,11.40
2023-04-29T21:53:20.886Z,11.15
2023-04-29T21:55:47.811Z,9.90
2023-04-29T21:58:15.994Z,12.30
2023-04-29T22:00:51.096Z,11.10
2023-04-29T22:03:17.968Z,16.58
2023-04-29T22:05:44.694Z,11.88
2023-04-29T22:08:11.382Z,11.70
2023-04-29T22:10:40.029Z,12.93
2023-04-29T22:13:07.482Z,12.80
2023-04-29T22:15:34.087Z,14.88
2023-04-29T22:18:00.828Z,11.38
2023-04-29T22:20:27.979Z,12.07
2023-04-29T22:22:55.126Z,14.02
2023-04-29T22:25:22.146Z,12.35
2023-04-29T22:27:49.974Z,12.93
2023-04-29T22:30:17.678Z,14.98
2023-04-29T22:32:44.393Z,12.48
2023-04-29T22:35:11.195Z,10.43
2023-04-29T22:37:37.802Z,9.35
2023-04-29T22:40:06.046Z,14.70
2023-04-29T22:42:32.602Z,11.85
2023-04-29T22:44:59.174Z,11.70
2023-04-29T22:47:26.235Z,12.75
2023-04-29T22:49:52.977Z,12.98
2023-04-29T22:52:19.758Z,13.98
2023-04-29T22:54:47.302Z,11.20
2023-04-29T22:57:13.927Z,11.50
2023-04-29T22:59:40.634Z,12.68
2023-04-29T23:02:07.430Z,10.80
2023-04-29T23:04:34.019Z,11.82
2023-04-29T23:07:00.725Z,13.95
2023-04-29T23:09:27.383Z,13.57
2023-04-29T23:11:53.959Z,13.88
2023-04-29T23:14:21.622Z,14.45
2023-04-29T23:16:51.094Z,13.48
2023-04-29T23:19:17.769Z,16.58
2023-04-29T23:21:44.482Z,16.35
2023-04-29T23:24:12.141Z,12.43
2023-04-29T23:26:38.819Z,14.23
2023-04-29T23:29:06.075Z,12.02
2023-04-29T23:31:32.690Z,13.80
2023-04-29T23:34:00.341Z,16.10
2023-04-29T23:36:28.012Z,11.90
2023-04-29T23:38:54.636Z,11.52
2023-04-29T23:41:21.243Z,15.10
2023-04-29T23:43:47.924Z,15.13
2023-04-29T23:46:14.572Z,16.08
2023-04-29T23:48:41.115Z,13.25
2023-04-29T23:51:08.214Z,15.20
2023-04-29T23:53:34.976Z,13.18
2023-04-29T23:56:01.663Z,14.77
2023-04-29T23:58:28.395Z,13.20
